Oak Creek, Wisconsin
Current Conditions -  °F | °C
As of 4:52 AM on Thursday 27 Nov 2014 (Local Time) from KMKE Reporting Station
Broken Clouds Broken Clouds  
Wind Chill: 14°   Ceiling: 5000
Heat Index: 24°   Visibility: 10mi
Dew Point: 18°   Wind: 10mph
Humidity: 77%   Direction: 320°NW
Pressure: 30.23"   Gusts: NA
Location:  42.89°N, 87.91°W
Report Text: KMKE 271052Z 32009KT 10SM BKN050 BKN100 M04/M08 A3023 RMK AO2 SNE17 SLP248 P0000 T10441078
Loading
Personal Weather Stations






























Interactive Weather Map New forecast layout! Learn more

10-Day Weather Forecast

Advertisements
Track Severe Weather on mobile